Terminal Aerodrome Forecast
Issued by NWS

Home | Current Version | Previous Version | Text Only | Print | Product List | Glossary Off
Versions: 1 2 3 4 5 6 7 8 9 10 11 12 13 14 15 16 17 18 19 20 21 22 23

000
FTUS43 KMPX 031258 AAA
TAFRWF
TAF AMD
KRWF 031258Z 0313/0412 10004KT 1/2SM FG OVC002
      TEMPO 0313/0315 3SM BR SCT004
     FM031500 15011KT P6SM SCT015
     FM040600 13007KT 6SM BR FEW004=

USA.gov is the U.S. government's official web portal to all federal, state and local government web resources and services.